Time;durP1;ratioP1;P1;durP2;ratioP2;P2;SDS_P1;SDS_P2;PMS_P1;PMS_P2;Temp;Humidity;BMP_temperature;BMP_pressure;BME280_temperature;BME280_humidity;BME280_pressure;Samples;Min_cycle;Max_cycle;Signal;HPM_P1;HPM_P2
2021/11/17 02:28:10;;;;;;;2.40;1.50;;;7.00;88.40;;;;;;5003621;28;20591;-75
2021/11/17 02:30:45;;;;;;;2.47;2.37;;;7.00;88.30;;;;;;5003006;28;20203;-74
2021/11/17 02:33:52;;;;;;;2.00;1.83;;;7.10;88.30;;;;;;4986943;28;20235;-74
2021/11/17 02:36:42;;;;;;;1.70;1.60;;;7.10;88.30;;;;;;5003388;28;20267;-75
2021/11/17 02:39:25;;;;;;;5.10;2.27;;;7.10;88.40;;;;;;5003794;28;20280;-75
2021/11/17 02:42:19;;;;;;;3.23;1.50;;;7.20;88.10;;;;;;5001755;28;20185;-75
2021/11/17 02:45:00;;;;;;;1.63;1.53;;;7.20;87.90;;;;;;5004557;28;20193;-75
2021/11/17 02:47:47;;;;;;;2.30;2.10;;;7.20;87.70;;;;;;5003349;28;20193;-75
2021/11/17 02:50:13;;;;;;;2.20;1.97;;;7.30;87.60;;;;;;5002144;28;20746;-75
2021/11/17 02:52:53;;;;;;;2.30;2.20;;;7.40;87.60;;;;;;5026486;28;20204;-76
2021/11/17 02:55:29;;;;;;;2.23;2.13;;;7.40;87.30;;;;;;5049462;28;20697;-75
2021/11/17 02:58:10;;;;;;;2.03;1.93;;;7.40;87.30;;;;;;5033469;28;20179;-75
2021/11/17 03:01:11;;;;;;;4.57;2.10;;;7.40;87.50;;;;;;5048065;28;20270;-75
2021/11/17 03:03:36;;;;;;;4.20;2.20;;;7.30;87.20;;;;;;5046838;28;20198;-75
2021/11/17 03:06:26;;;;;;;2.57;2.23;;;7.40;87.30;;;;;;5051323;28;20180;-75
2021/11/17 03:09:01;;;;;;;2.57;2.37;;;7.40;87.00;;;;;;5048383;28;20184;-76
2021/11/17 03:11:56;;;;;;;2.73;2.27;;;7.40;87.10;;;;;;5048099;28;20178;-76
2021/11/17 03:15:09;;;;;;;4.60;2.13;;;7.40;86.90;;;;;;5047834;28;20178;-75
2021/11/17 03:17:55;;;;;;;1.77;1.63;;;7.50;86.70;;;;;;5048171;28;20274;-76
2021/11/17 03:20:24;;;;;;;4.00;2.53;;;7.60;86.60;;;;;;5045133;28;20203;-75
2021/11/17 03:22:50;;;;;;;2.27;2.17;;;7.60;86.60;;;;;;5061333;28;20535;-75
2021/11/17 03:25:27;;;;;;;2.13;2.00;;;7.60;86.50;;;;;;5046329;28;20227;-75
2021/11/17 03:27:59;;;;;;;3.07;2.43;;;7.60;86.50;;;;;;5046035;28;20204;-75
2021/11/17 03:30:34;;;;;;;2.80;2.57;;;7.60;86.70;;;;;;5044386;28;20236;-75
2021/11/17 03:33:28;;;;;;;2.80;2.60;;;7.60;86.90;;;;;;5044610;28;20233;-74
2021/11/17 03:36:03;;;;;;;2.60;2.40;;;7.60;87.10;;;;;;5029508;28;20224;-74
2021/11/17 03:39:11;;;;;;;2.63;2.37;;;7.60;87.20;;;;;;5030155;28;20191;-75
2021/11/17 03:41:46;;;;;;;2.60;2.40;;;7.60;87.00;;;;;;4996637;28;20181;-75
2021/11/17 03:44:33;;;;;;;2.30;2.10;;;7.60;87.20;;;;;;4984877;28;20228;-75
2021/11/17 03:47:05;;;;;;;3.77;3.03;;;7.60;87.10;;;;;;4989875;28;20275;-75
2021/11/17 03:50:02;;;;;;;2.77;2.50;;;7.50;87.60;;;;;;4989889;28;20885;-75
2021/11/17 03:52:35;;;;;;;3.23;2.97;;;7.50;87.80;;;;;;4929225;29;20197;-75
2021/11/17 03:55:31;;;;;;;3.13;2.93;;;7.40;87.90;;;;;;4929815;29;20187;-75
2021/11/17 03:58:15;;;;;;;2.30;2.10;;;7.40;87.80;;;;;;4927280;29;20212;-75
2021/11/17 04:01:02;;;;;;;3.13;2.93;;;7.40;88.00;;;;;;4928769;29;20180;-75
2021/11/17 04:03:42;;;;;;;2.73;2.53;;;7.30;87.80;;;;;;4928242;29;20289;-75
2021/11/17 04:06:35;;;;;;;4.27;3.20;;;7.40;87.70;;;;;;4927122;29;20198;-75
2021/11/17 04:09:20;;;;;;;4.67;3.17;;;7.40;87.90;;;;;;4927185;29;20192;-75
2021/11/17 04:12:13;;;;;;;4.30;2.90;;;7.40;88.20;;;;;;4913597;29;20188;-75
2021/11/17 04:14:42;;;;;;;3.00;2.80;;;7.40;88.70;;;;;;4929518;29;20195;-75
2021/11/17 04:17:29;;;;;;;3.53;3.23;;;7.30;88.90;;;;;;4927847;29;20215;-75
2021/11/17 04:19:57;;;;;;;3.63;2.83;;;7.20;88.70;;;;;;4946737;28;20676;-74
2021/11/17 04:22:47;;;;;;;2.80;2.60;;;7.20;88.40;;;;;;4946128;28;20199;-74
2021/11/17 04:25:28;;;;;;;3.60;3.07;;;7.30;88.10;;;;;;4945565;28;20235;-75
2021/11/17 04:28:25;;;;;;;5.43;2.87;;;7.30;87.90;;;;;;4947497;28;20277;-75
2021/11/17 04:31:06;;;;;;;2.40;2.30;;;7.30;87.80;;;;;;5001740;28;20275;-75
2021/11/17 04:33:50;;;;;;;4.43;2.30;;;7.30;87.70;;;;;;5004708;28;20196;-74
2021/11/17 04:36:28;;;;;;;3.93;2.90;;;7.40;87.60;;;;;;4986428;28;20226;-75
2021/11/17 04:39:08;;;;;;;3.00;2.67;;;7.30;87.70;;;;;;5004808;28;20176;-75
2021/11/17 04:42:07;;;;;;;2.47;2.27;;;7.30;87.50;;;;;;5005359;28;20699;-74
2021/11/17 04:44:47;;;;;;;2.53;2.33;;;7.40;87.50;;;;;;5007484;28;20570;-75
2021/11/17 04:47:21;;;;;;;2.27;2.10;;;7.40;87.70;;;;;;4987768;28;20188;-75
2021/11/17 04:49:46;;;;;;;2.43;2.27;;;7.40;88.00;;;;;;4988689;28;20192;-75
2021/11/17 04:52:34;;;;;;;3.30;2.50;;;7.40;88.60;;;;;;5005095;28;20195;-75
2021/11/17 04:55:27;;;;;;;1.77;1.67;;;7.40;88.50;;;;;;4973241;28;20275;-74
2021/11/17 04:58:30;;;;;;;2.63;2.43;;;7.40;88.40;;;;;;4987998;28;20255;-75
2021/11/17 05:01:20;;;;;;;2.40;2.20;;;7.40;88.60;;;;;;4981148;28;20220;-74
2021/11/17 05:04:03;;;;;;;3.10;2.50;;;7.40;88.70;;;;;;5003885;28;20191;-74
2021/11/17 05:06:57;;;;;;;2.47;2.13;;;7.40;88.70;;;;;;5005581;28;20181;-74
2021/11/17 05:09:32;;;;;;;3.57;2.20;;;7.40;88.90;;;;;;5024649;28;20271;-74
2021/11/17 05:12:23;;;;;;;3.87;2.47;;;7.50;88.80;;;;;;5023426;28;20184;-74
2021/11/17 05:15:14;;;;;;;2.40;2.10;;;7.40;89.10;;;;;;5011656;28;20227;-74
2021/11/17 05:17:51;;;;;;;3.20;2.43;;;7.50;88.90;;;;;;5005324;28;20204;-74
2021/11/17 05:20:35;;;;;;;2.50;2.03;;;7.50;88.80;;;;;;5005943;28;20204;-74
2021/11/17 05:23:22;;;;;;;2.40;2.20;;;7.50;88.70;;;;;;5021098;28;20180;-74
2021/11/17 05:25:49;;;;;;;2.40;2.10;;;7.60;88.40;;;;;;5006479;28;20203;-74
2021/11/17 05:28:23;;;;;;;5.90;3.17;;;7.60;88.50;;;;;;5023228;28;20185;-74
2021/11/17 05:31:13;;;;;;;2.70;2.60;;;7.60;88.50;;;;;;5023173;28;20727;-74
2021/11/17 05:33:55;;;;;;;3.10;2.87;;;7.60;88.40;;;;;;5006632;28;20339;-74
2021/11/17 05:36:39;;;;;;;2.83;2.53;;;7.50;88.40;;;;;;5005375;28;20204;-74
2021/11/17 05:39:07;;;;;;;2.03;1.93;;;7.50;88.40;;;;;;5020807;28;20274;-75
2021/11/17 05:41:43;;;;;;;3.87;2.60;;;7.40;88.50;;;;;;5021500;28;20267;-73
2021/11/17 05:44:32;;;;;;;3.63;2.57;;;7.50;88.40;;;;;;5021527;28;20280;-73
2021/11/17 05:47:16;;;;;;;2.40;2.17;;;7.50;88.40;;;;;;5040319;28;20192;-73
2021/11/17 05:49:57;;;;;;;2.60;2.33;;;7.50;88.20;;;;;;5047860;28;20248;-76
2021/11/17 05:53:00;;;;;;;6.13;2.67;;;7.50;88.20;;;;;;5028271;28;20278;-76
2021/11/17 05:55:35;;;;;;;3.90;2.73;;;7.50;88.00;;;;;;5045987;28;20186;-75
2021/11/17 05:58:18;;;;;;;4.43;3.07;;;7.50;88.00;;;;;;5045900;28;20210;-75
2021/11/17 06:00:50;;;;;;;3.30;3.00;;;7.50;87.60;;;;;;5041680;28;20183;-76
2021/11/17 06:03:36;;;;;;;5.17;3.80;;;7.40;87.60;;;;;;5043676;28;20338;-77
2021/11/17 06:06:01;;;;;;;3.70;3.40;;;7.40;87.30;;;;;;5041741;28;20211;-75
2021/11/17 06:08:27;;;;;;;5.17;2.90;;;7.50;87.60;;;;;;5044456;28;20212;-75
2021/11/17 06:10:56;;;;;;;3.30;3.03;;;7.50;87.60;;;;;;5045211;28;21031;-76
2021/11/17 06:13:22;;;;;;;3.87;3.00;;;7.50;87.60;;;;;;5043921;28;20194;-78
2021/11/17 06:15:49;;;;;;;5.77;3.27;;;7.60;87.50;;;;;;5045734;28;20633;-78
2021/11/17 06:18:23;;;;;;;4.20;3.80;;;7.60;87.50;;;;;;5044920;28;20635;-78
2021/11/17 06:20:49;;;;;;;4.37;3.90;;;7.70;87.20;;;;;;5047992;28;20217;-78
2021/11/17 06:23:26;;;;;;;4.63;3.50;;;7.70;87.10;;;;;;5050199;28;20237;-77
2021/11/17 06:25:52;;;;;;;5.30;3.60;;;7.70;86.80;;;;;;5047184;28;20176;-77
2021/11/17 06:28:24;;;;;;;5.03;3.17;;;7.70;86.70;;;;;;5045984;28;20217;-77
2021/11/17 06:30:52;;;;;;;4.80;3.60;;;7.70;85.70;;;;;;5042338;28;20186;-78
2021/11/17 06:33:18;;;;;;;3.17;2.87;;;7.60;85.20;;;;;;5043936;28;20187;-76
2021/11/17 06:35:44;;;;;;;4.07;2.80;;;7.50;85.60;;;;;;5048586;28;20213;-81
2021/11/17 06:38:10;;;;;;;4.67;3.17;;;7.50;85.60;;;;;;5043739;28;20190;-78
2021/11/17 06:40:40;;;;;;;4.23;3.13;;;7.50;85.80;;;;;;5046469;28;20179;-76
2021/11/17 06:43:08;;;;;;;5.53;3.07;;;7.60;85.80;;;;;;5046242;28;20187;-76
2021/11/17 06:45:52;;;;;;;4.70;4.13;;;7.60;86.00;;;;;;5044019;28;20179;-81
2021/11/17 06:48:20;;;;;;;4.80;3.03;;;7.60;86.20;;;;;;5042671;28;20726;-79
2021/11/17 06:50:48;;;;;;;4.20;3.00;;;7.60;85.80;;;;;;5043032;28;20911;-80
2021/11/17 06:53:14;;;;;;;3.73;3.10;;;7.60;85.60;;;;;;5043829;28;20605;-81
2021/11/17 06:55:41;;;;;;;8.33;3.30;;;7.70;85.20;;;;;;5044286;28;20273;-80
2021/11/17 06:58:06;;;;;;;4.43;3.03;;;7.70;84.90;;;;;;5041559;28;20227;-80
2021/11/17 07:00:35;;;;;;;2.60;2.43;;;7.70;84.80;;;;;;5041622;28;20717;-80
2021/11/17 07:03:01;;;;;;;4.70;3.37;;;7.70;84.20;;;;;;5042903;28;20189;-80
2021/11/17 07:05:27;;;;;;;3.70;3.37;;;7.60;84.30;;;;;;5041503;28;21092;-80
2021/11/17 07:07:57;;;;;;;3.30;3.07;;;7.70;84.60;;;;;;5043152;28;20287;-80
2021/11/17 07:10:26;;;;;;;3.97;3.13;;;7.60;84.40;;;;;;5040569;28;20183;-81
2021/11/17 07:12:52;;;;;;;3.17;2.97;;;7.60;84.50;;;;;;5044715;28;20180;-80
2021/11/17 07:15:19;;;;;;;4.23;3.23;;;7.60;84.60;;;;;;5044651;28;20701;-80
2021/11/17 07:17:45;;;;;;;3.47;2.80;;;7.70;84.50;;;;;;5043087;28;20184;-80
2021/11/17 07:20:13;;;;;;;5.07;3.70;;;7.70;84.40;;;;;;5044592;28;20909;-80
2021/11/17 07:22:39;;;;;;;5.10;3.00;;;7.70;84.30;;;;;;5044166;28;20276;-80
2021/11/17 07:25:10;;;;;;;3.57;3.20;;;7.80;84.30;;;;;;5044124;28;20180;-80
2021/11/17 07:27:36;;;;;;;2.93;2.77;;;7.80;83.90;;;;;;5044523;28;20207;-80
2021/11/17 07:30:08;;;;;;;3.77;3.43;;;7.80;83.70;;;;;;5042682;28;20176;-79
2021/11/17 07:32:34;;;;;;;3.00;2.80;;;7.70;83.60;;;;;;5044336;28;20192;-80
2021/11/17 07:35:00;;;;;;;5.77;3.47;;;7.80;83.70;;;;;;5044581;28;20252;-81
2021/11/17 07:37:26;;;;;;;6.43;3.30;;;7.70;83.70;;;;;;5043295;28;20219;-81
2021/11/17 07:39:52;;;;;;;4.13;3.83;;;7.70;83.90;;;;;;5044336;28;20180;-80
2021/11/17 07:42:17;;;;;;;3.80;3.50;;;7.70;83.90;;;;;;5049236;28;20199;-81
2021/11/17 07:44:43;;;;;;;3.80;2.93;;;7.70;83.70;;;;;;5048608;28;20265;-80
2021/11/17 07:47:10;;;;;;;3.57;2.83;;;7.80;83.70;;;;;;5048164;28;20677;-81
2021/11/17 07:49:36;;;;;;;4.10;3.03;;;7.80;83.40;;;;;;5046659;28;20585;-80
2021/11/17 07:52:03;;;;;;;3.37;3.13;;;7.80;83.40;;;;;;5048024;28;20614;-80
2021/11/17 07:54:29;;;;;;;4.70;3.70;;;7.80;83.50;;;;;;5048159;28;20185;-80
2021/11/17 07:56:55;;;;;;;2.80;2.70;;;7.90;83.50;;;;;;5047950;28;20215;-80
2021/11/17 07:59:27;;;;;;;4.47;3.53;;;7.90;83.50;;;;;;5046732;28;20285;-80
2021/11/17 08:01:55;;;;;;;3.23;3.03;;;8.00;83.40;;;;;;5047300;28;20178;-81
2021/11/17 08:04:23;;;;;;;5.50;3.13;;;7.90;82.90;;;;;;5046838;28;20665;-80
2021/11/17 08:06:51;;;;;;;4.90;3.70;;;7.90;82.80;;;;;;5046052;28;20188;-80
2021/11/17 08:09:18;;;;;;;2.67;2.47;;;7.90;83.00;;;;;;5045489;28;20195;-80
2021/11/17 08:11:44;;;;;;;3.37;2.97;;;8.00;83.00;;;;;;5047759;28;20179;-80
2021/11/17 08:14:10;;;;;;;4.53;3.10;;;8.00;83.00;;;;;;5047464;28;20183;-80
2021/11/17 08:16:38;;;;;;;4.20;3.80;;;8.00;82.60;;;;;;5046955;28;20741;-80
2021/11/17 08:19:04;;;;;;;4.33;3.33;;;8.00;82.10;;;;;;5047299;28;20552;-81
2021/11/17 08:21:29;;;;;;;4.33;3.47;;;8.00;82.40;;;;;;5046338;28;20176;-80
2021/11/17 08:23:55;;;;;;;3.47;3.27;;;7.90;82.80;;;;;;5046897;28;20194;-80
2021/11/17 08:26:23;;;;;;;5.33;4.13;;;7.90;82.70;;;;;;5045643;28;20199;-80
2021/11/17 08:28:49;;;;;;;3.73;3.17;;;8.00;82.70;;;;;;5047185;28;20184;-80
2021/11/17 08:31:15;;;;;;;3.43;3.03;;;8.00;82.50;;;;;;5046358;28;20666;-80
2021/11/17 08:33:42;;;;;;;2.30;2.20;;;8.10;82.20;;;;;;5045890;28;20204;-78
2021/11/17 08:36:09;;;;;;;4.97;4.47;;;8.20;82.70;;;;;;5045559;28;20717;-80
2021/11/17 08:38:35;;;;;;;3.90;3.60;;;8.30;81.80;;;;;;5046547;28;20583;-79
2021/11/17 08:41:07;;;;;;;4.13;3.70;;;8.30;81.40;;;;;;5045009;28;20225;-79
2021/11/17 08:43:34;;;;;;;3.73;3.00;;;8.20;81.60;;;;;;5045969;28;20207;-80
2021/11/17 08:46:00;;;;;;;4.03;3.43;;;8.20;81.70;;;;;;5044722;28;20284;-80
2021/11/17 08:48:30;;;;;;;3.70;3.40;;;8.20;81.60;;;;;;5046596;28;20187;-81
2021/11/17 08:50:58;;;;;;;4.93;3.37;;;8.20;81.60;;;;;;5046138;28;20230;-79
2021/11/17 08:53:27;;;;;;;3.30;3.07;;;8.20;81.50;;;;;;5045946;28;20184;-80
2021/11/17 08:55:54;;;;;;;3.50;3.13;;;8.20;81.00;;;;;;5046523;28;20222;-82
2021/11/17 08:58:22;;;;;;;3.27;3.00;;;8.20;80.80;;;;;;5046356;28;20316;-81
2021/11/17 09:00:47;;;;;;;3.47;3.17;;;8.20;80.70;;;;;;5046970;28;20313;-81
2021/11/17 09:03:13;;;;;;;4.93;4.07;;;8.20;80.70;;;;;;5044668;28;20266;-81
2021/11/17 09:05:45;;;;;;;4.30;3.53;;;8.30;80.80;;;;;;5044546;28;20302;-82
2021/11/17 09:08:12;;;;;;;5.30;4.10;;;8.40;81.20;;;;;;5041191;28;20180;-81
2021/11/17 09:10:41;;;;;;;4.67;4.27;;;8.40;81.70;;;;;;5042624;28;20188;-82
2021/11/17 09:13:07;;;;;;;3.90;3.60;;;8.50;81.70;;;;;;5043835;28;20743;-81
2021/11/17 09:15:36;;;;;;;3.33;3.03;;;8.60;81.70;;;;;;5043441;28;20242;-80
2021/11/17 09:18:04;;;;;;;3.63;3.33;;;8.60;81.20;;;;;;5043930;28;20241;-81
2021/11/17 09:20:31;;;;;;;6.17;4.70;;;8.70;81.50;;;;;;5041448;28;20616;-80
2021/11/17 09:22:57;;;;;;;4.53;3.93;;;8.80;81.90;;;;;;5041125;28;21338;-81
2021/11/17 09:25:24;;;;;;;5.10;4.70;;;8.90;81.80;;;;;;5041983;28;20676;-80
2021/11/17 09:27:50;;;;;;;5.93;4.33;;;9.00;81.80;;;;;;5043816;28;20262;-81
2021/11/17 09:30:20;;;;;;;4.50;4.10;;;9.00;81.30;;;;;;5046766;28;20254;-81
2021/11/17 09:32:48;;;;;;;4.73;4.33;;;9.10;81.30;;;;;;5042449;28;20187;-81
2021/11/17 09:35:16;;;;;;;4.40;3.93;;;9.20;81.10;;;;;;5041930;28;20274;-81
2021/11/17 09:37:45;;;;;;;4.03;3.77;;;9.20;80.90;;;;;;5042080;28;20957;-80
2021/11/17 09:40:18;;;;;;;4.17;3.77;;;9.20;80.90;;;;;;5043038;28;20183;-81
2021/11/17 09:42:44;;;;;;;4.67;4.07;;;9.30;80.80;;;;;;5043297;28;20179;-80
2021/11/17 09:45:10;;;;;;;4.03;3.73;;;9.30;80.30;;;;;;5041646;28;20188;-80
2021/11/17 09:47:38;;;;;;;5.53;4.77;;;9.30;80.30;;;;;;5042723;28;20973;-79
2021/11/17 09:50:17;;;;;;;4.13;3.80;;;9.30;80.70;;;;;;5043920;28;20681;-80
2021/11/17 09:52:50;;;;;;;4.80;4.10;;;9.40;81.00;;;;;;5043778;28;20652;-80
2021/11/17 09:55:40;;;;;;;4.13;3.80;;;9.40;80.70;;;;;;5040161;28;20198;-80
2021/11/17 09:58:20;;;;;;;4.10;3.70;;;9.50;80.70;;;;;;5042806;28;20283;-80
2021/11/17 10:00:52;;;;;;;3.67;3.47;;;9.60;79.90;;;;;;5043491;28;20190;-80
2021/11/17 10:03:42;;;;;;;3.90;3.60;;;9.70;79.90;;;;;;5042620;28;20220;-80
2021/11/17 10:14:37;;;;;;;5.27;4.30;;;9.90;79.70;;;;;;5041402;28;20211;-76
2021/11/17 10:17:34;;;;;;;3.40;3.10;;;9.90;79.30;;;;;;5042272;28;20235;-78
2021/11/17 10:20:15;;;;;;;3.27;2.93;;;10.00;78.80;;;;;;5043721;28;20180;-79
2021/11/17 10:22:44;;;;;;;3.77;3.47;;;10.00;79.20;;;;;;5044014;28;20199;-79
2021/11/17 10:25:17;;;;;;;3.70;3.40;;;10.10;78.90;;;;;;5042954;28;20183;-77
2021/11/17 10:27:50;;;;;;;3.67;3.37;;;10.00;78.80;;;;;;5044039;28;20183;-77
2021/11/17 10:30:34;;;;;;;4.30;3.80;;;10.10;79.00;;;;;;5045280;28;20195;-77
2021/11/17 10:33:11;;;;;;;3.97;3.77;;;10.00;78.50;;;;;;5039726;28;20567;-77
2021/11/17 10:35:45;;;;;;;5.23;3.13;;;10.00;78.70;;;;;;5043080;28;20214;-77
2021/11/17 10:38:38;;;;;;;3.80;3.50;;;10.00;78.40;;;;;;5041956;28;20187;-77
2021/11/17 10:41:27;;;;;;;2.78;2.67;;;9.90;78.40;;;;;;5040609;28;20861;-77
2021/11/17 10:44:06;;;;;;;3.27;3.07;;;9.90;78.70;;;;;;5043868;28;20187;-77
2021/11/17 10:46:45;;;;;;;3.60;3.40;;;9.90;78.50;;;;;;5039458;28;20278;-77
2021/11/17 10:49:15;;;;;;;3.83;3.63;;;9.90;78.80;;;;;;5041384;28;20184;-77
2021/11/17 10:52:00;;;;;;;3.77;3.43;;;10.00;79.00;;;;;;5042125;28;20333;-77
2021/11/17 10:54:29;;;;;;;3.53;3.27;;;10.10;78.50;;;;;;5040202;28;20267;-76
2021/11/17 10:57:11;;;;;;;3.47;3.27;;;10.00;78.20;;;;;;5041745;28;20256;-77
2021/11/17 10:59:38;;;;;;;4.13;2.73;;;10.10;78.50;;;;;;5042216;28;20280;-76
2021/11/17 11:02:11;;;;;;;3.50;3.30;;;10.20;78.50;;;;;;5040518;28;20179;-77
2021/11/17 11:04:45;;;;;;;3.38;3.13;;;10.20;78.40;;;;;;5041882;28;21013;-78
2021/11/17 11:07:36;;;;;;;3.17;3.00;;;10.20;78.20;;;;;;5041388;28;20615;-75
2021/11/17 11:10:07;;;;;;;3.53;3.17;;;10.20;77.60;;;;;;5000155;28;20228;-77
2021/11/17 11:12:34;;;;;;;3.83;2.90;;;10.20;78.00;;;;;;5001719;28;20205;-77
2021/11/17 11:15:12;;;;;;;2.63;2.53;;;10.30;77.40;;;;;;4988195;28;20689;-77
2021/11/17 11:18:01;;;;;;;3.25;3.05;;;10.30;76.90;;;;;;5005101;28;20312;-77
2021/11/17 11:20:31;;;;;;;4.13;3.42;;;10.40;77.30;;;;;;5006701;28;20829;-77
2021/11/17 11:23:05;;;;;;;3.42;3.25;;;10.50;77.00;;;;;;5006775;28;20193;-77
2021/11/17 11:25:48;;;;;;;3.00;2.80;;;10.60;76.40;;;;;;5006931;28;20666;-75
2021/11/17 11:28:25;;;;;;;3.10;2.83;;;10.60;76.40;;;;;;5000735;28;20914;-76
2021/11/17 11:31:12;;;;;;;3.42;2.50;;;10.70;76.70;;;;;;5005162;28;20196;-76
2021/11/17 11:33:50;;;;;;;2.88;2.72;;;10.80;76.60;;;;;;5003729;28;20225;-76
2021/11/17 11:36:16;;;;;;;3.17;3.00;;;10.80;76.80;;;;;;5003068;28;21106;-76
2021/11/17 11:38:44;;;;;;;3.38;3.00;;;10.80;75.90;;;;;;5002278;28;20234;-76
2021/11/17 11:41:33;;;;;;;4.40;3.00;;;10.90;76.30;;;;;;5006048;28;20189;-76
2021/11/17 11:44:23;;;;;;;2.65;2.55;;;10.90;76.00;;;;;;5005415;28;20211;-76
2021/11/17 11:46:57;;;;;;;3.53;3.33;;;11.00;75.20;;;;;;5019450;28;20204;-76
2021/11/17 11:49:44;;;;;;;3.53;3.22;;;11.00;75.10;;;;;;5047027;28;20183;-75
2021/11/17 11:52:24;;;;;;;3.85;3.38;;;10.90;75.30;;;;;;5046853;28;20183;-76
2021/11/17 11:54:50;;;;;;;2.88;2.75;;;10.90;75.50;;;;;;5047998;28;20244;-76
2021/11/17 11:57:28;;;;;;;3.70;3.40;;;10.90;75.60;;;;;;5045418;28;20260;-76
2021/11/17 12:00:08;;;;;;;3.33;3.13;;;10.90;75.30;;;;;;5046558;28;20244;-76
2021/11/17 12:02:52;;;;;;;3.55;3.25;;;11.00;75.10;;;;;;5047651;28;20180;-77
2021/11/17 12:05:37;;;;;;;3.25;3.05;;;11.00;75.10;;;;;;5044963;28;20280;-76
2021/11/17 12:08:23;;;;;;;2.92;2.72;;;11.00;75.00;;;;;;5044791;28;20187;-76
2021/11/17 12:11:07;;;;;;;4.00;2.70;;;11.00;74.90;;;;;;5043815;28;20227;-75
2021/11/17 12:13:45;;;;;;;3.67;3.38;;;11.00;74.80;;;;;;5046047;28;20180;-75
2021/11/17 12:16:21;;;;;;;5.22;3.50;;;11.10;75.10;;;;;;5044836;28;20215;-76
2021/11/17 12:19:04;;;;;;;3.20;2.92;;;11.10;74.70;;;;;;5046247;28;20677;-77
2021/11/17 12:21:39;;;;;;;3.80;3.50;;;11.00;74.80;;;;;;5044005;28;20191;-75
2021/11/17 12:24:18;;;;;;;3.25;3.05;;;10.90;74.90;;;;;;5045011;28;20973;-76
2021/11/17 12:26:47;;;;;;;3.08;2.78;;;10.90;75.10;;;;;;5045675;28;20284;-77
2021/11/17 12:29:22;;;;;;;3.58;3.28;;;11.00;75.20;;;;;;5046568;28;20201;-76
2021/11/17 12:32:09;;;;;;;5.82;3.28;;;10.90;74.90;;;;;;5046569;28;20362;-76
2021/11/17 12:34:40;;;;;;;2.67;2.47;;;11.00;74.90;;;;;;5043845;28;20187;-76
2021/11/17 12:37:35;;;;;;;2.30;2.20;;;11.00;74.70;;;;;;5046070;28;20217;-76
2021/11/17 12:40:14;;;;;;;2.90;2.65;;;11.00;74.70;;;;;;5044558;28;20192;-76
2021/11/17 12:42:53;;;;;;;3.17;2.97;;;11.00;74.70;;;;;;5044201;28;20195;-76
2021/11/17 12:45:37;;;;;;;2.55;2.35;;;11.10;74.70;;;;;;5045356;28;20207;-77
2021/11/17 12:48:11;;;;;;;2.95;2.72;;;11.10;74.50;;;;;;5043084;28;20191;-76
2021/11/17 12:51:00;;;;;;;3.05;2.85;;;11.20;74.50;;;;;;5042983;28;20199;-76
2021/11/17 12:54:01;;;;;;;3.03;2.83;;;11.30;74.30;;;;;;5045603;28;20731;-77
2021/11/17 12:56:35;;;;;;;3.92;2.92;;;11.40;74.10;;;;;;5008290;28;20224;-77
2021/11/17 12:59:02;;;;;;;2.83;2.72;;;11.30;74.00;;;;;;5004108;28;20189;-77
2021/11/17 13:01:28;;;;;;;3.25;3.00;;;11.30;73.80;;;;;;5004837;28;20205;-77
2021/11/17 13:04:05;;;;;;;5.13;3.67;;;11.20;73.80;;;;;;5012117;28;20721;-76
2021/11/17 13:06:45;;;;;;;3.15;2.95;;;11.20;73.70;;;;;;5005668;28;20196;-76
2021/11/17 13:09:20;;;;;;;3.25;2.90;;;11.00;73.90;;;;;;5022452;28;20184;-77
2021/11/17 13:11:51;;;;;;;3.08;2.88;;;10.80;74.20;;;;;;5008591;28;20670;-77
2021/11/17 13:14:25;;;;;;;3.08;2.72;;;10.70;74.50;;;;;;5006338;28;20263;-75
2021/11/17 13:16:52;;;;;;;2.83;2.63;;;10.60;75.10;;;;;;5005311;28;20231;-76
2021/11/17 13:19:57;;;;;;;3.80;3.47;;;10.60;75.50;;;;;;5005718;28;20246;-75
2021/11/17 13:22:32;;;;;;;3.78;3.22;;;10.50;75.90;;;;;;4947151;28;20195;-76
2021/11/17 13:25:13;;;;;;;2.80;2.60;;;10.40;75.90;;;;;;4950720;28;20260;-77
2021/11/17 13:27:58;;;;;;;5.45;3.13;;;10.40;76.00;;;;;;4946074;28;20203;-76
2021/11/17 13:30:49;;;;;;;2.90;2.70;;;10.30;76.30;;;;;;4949873;28;20228;-77
2021/11/17 13:33:28;;;;;;;3.80;2.85;;;10.30;76.40;;;;;;4954064;28;20194;-76
2021/11/17 13:36:03;;;;;;;4.65;3.97;;;10.20;76.60;;;;;;4967533;28;20273;-77
2021/11/17 13:38:29;;;;;;;4.47;2.85;;;10.20;76.80;;;;;;4956781;28;20181;-77
2021/11/17 13:40:57;;;;;;;3.80;2.88;;;10.20;76.90;;;;;;4967998;28;20198;-77
2021/11/17 13:43:25;;;;;;;2.92;2.67;;;10.20;76.90;;;;;;4945759;28;20188;-76
2021/11/17 13:45:54;;;;;;;3.40;3.00;;;10.20;76.80;;;;;;4964355;28;20239;-77
2021/11/17 13:48:26;;;;;;;2.97;2.78;;;10.20;76.70;;;;;;4950087;28;20780;-77
2021/11/17 13:50:52;;;;;;;3.00;2.80;;;10.20;76.60;;;;;;4950350;28;20251;-76
2021/11/17 13:53:20;;;;;;;2.63;2.53;;;10.20;76.90;;;;;;5016616;28;20932;-76
2021/11/17 13:55:59;;;;;;;2.92;2.72;;;10.20;76.80;;;;;;5043406;28;20302;-77
2021/11/17 13:58:26;;;;;;;2.88;2.55;;;10.10;76.90;;;;;;5043259;28;20788;-77
2021/11/17 14:00:52;;;;;;;3.13;2.90;;;10.10;77.00;;;;;;5043391;28;20187;-77
2021/11/17 14:03:19;;;;;;;4.97;3.17;;;10.10;77.00;;;;;;5043190;28;20202;-77
2021/11/17 14:05:46;;;;;;;4.63;2.65;;;10.20;77.20;;;;;;5043614;28;20319;-77
2021/11/17 14:08:12;;;;;;;3.42;2.90;;;10.20;77.20;;;;;;5043267;28;20694;-75
2021/11/17 14:10:39;;;;;;;3.50;3.30;;;10.30;77.10;;;;;;5043753;28;20276;-77
2021/11/17 14:13:06;;;;;;;4.30;3.30;;;10.50;77.10;;;;;;5044948;28;20187;-77
2021/11/17 14:15:33;;;;;;;2.90;2.72;;;10.80;76.90;;;;;;5044920;28;20184;-76
2021/11/17 14:17:59;;;;;;;3.65;3.35;;;11.00;75.90;;;;;;5043987;28;20172;-75
2021/11/17 14:20:26;;;;;;;3.17;2.95;;;11.10;75.30;;;;;;5042624;28;20188;-75
2021/11/17 14:22:52;;;;;;;4.18;3.70;;;11.30;74.70;;;;;;5044910;28;20244;-75
2021/11/17 14:25:20;;;;;;;3.17;2.95;;;11.40;74.50;;;;;;5044239;28;20183;-76
2021/11/17 14:27:53;;;;;;;3.60;3.30;;;11.40;74.00;;;;;;5043424;28;20223;-76
2021/11/17 14:30:54;;;;;;;3.75;3.45;;;11.40;73.70;;;;;;5044494;28;20290;-77
2021/11/17 14:33:24;;;;;;;2.92;2.72;;;11.20;73.60;;;;;;5009028;28;20267;-77
2021/11/17 14:35:51;;;;;;;3.28;3.08;;;11.10;74.10;;;;;;5003321;28;20228;-77
2021/11/17 14:38:18;;;;;;;7.65;4.25;;;10.90;74.30;;;;;;5010516;28;20204;-76
2021/11/17 14:40:46;;;;;;;3.67;3.38;;;10.70;74.70;;;;;;5011045;28;20199;-76
2021/11/17 14:43:12;;;;;;;4.38;3.17;;;10.50;75.20;;;;;;5008317;28;20189;-77
2021/11/17 14:45:40;;;;;;;3.30;3.10;;;10.30;75.50;;;;;;5011381;28;20228;-77
2021/11/17 14:48:06;;;;;;;4.95;3.03;;;10.10;75.90;;;;;;5008583;28;20238;-77
2021/11/17 14:50:32;;;;;;;4.38;2.90;;;10.00;76.40;;;;;;5009779;28;20208;-78
2021/11/17 14:52:58;;;;;;;3.55;3.28;;;9.80;76.70;;;;;;5009974;28;20185;-80
2021/11/17 14:55:27;;;;;;;5.25;3.40;;;9.70;77.10;;;;;;5016952;28;20176;-80
2021/11/17 14:57:53;;;;;;;4.05;3.58;;;9.50;77.50;;;;;;5018622;28;20319;-80
2021/11/17 15:00:36;;;;;;;3.53;3.23;;;9.40;78.00;;;;;;5023818;28;20188;-80
2021/11/17 15:03:03;;;;;;;3.70;3.43;;;9.20;78.30;;;;;;5029763;28;20195;-80
2021/11/17 15:05:30;;;;;;;4.63;3.70;;;9.00;79.10;;;;;;5024929;28;20191;-80
2021/11/17 15:07:57;;;;;;;3.77;3.03;;;8.90;79.30;;;;;;5012231;28;20682;-79
2021/11/17 15:10:24;;;;;;;5.23;3.40;;;8.80;79.30;;;;;;5043563;28;20201;-80
2021/11/17 15:12:51;;;;;;;4.23;3.10;;;8.70;79.70;;;;;;5058130;28;20180;-80
2021/11/17 15:15:38;;;;;;;5.53;2.80;;;8.60;80.20;;;;;;5056525;28;20195;-80
2021/11/17 15:18:04;;;;;;;5.60;3.93;;;8.50;80.10;;;;;;5062710;28;20187;-79
2021/11/17 15:20:30;;;;;;;5.17;3.23;;;8.50;80.50;;;;;;5062199;28;20187;-79
2021/11/17 15:22:56;;;;;;;4.30;3.17;;;8.40;80.80;;;;;;5063202;28;20237;-80
2021/11/17 15:25:37;;;;;;;6.33;3.57;;;8.30;81.00;;;;;;5064634;28;20677;-79
2021/11/17 15:28:07;;;;;;;4.77;3.43;;;8.30;81.00;;;;;;5063216;28;20191;-80
2021/11/17 15:30:38;;;;;;;4.03;3.63;;;8.20;81.40;;;;;;5060568;28;20194;-80
2021/11/17 15:33:05;;;;;;;5.80;3.07;;;8.10;81.50;;;;;;5060577;28;20187;-80
2021/11/17 15:35:31;;;;;;;4.43;3.37;;;8.10;81.50;;;;;;5062263;28;20210;-80
2021/11/17 15:37:59;;;;;;;3.47;3.20;;;8.00;81.80;;;;;;5060454;28;20206;-80
2021/11/17 15:40:30;;;;;;;3.40;3.13;;;8.00;82.00;;;;;;5059091;28;20197;-80
2021/11/17 15:42:57;;;;;;;5.83;3.67;;;7.90;82.00;;;;;;5057442;28;20878;-79
2021/11/17 15:45:24;;;;;;;3.77;2.90;;;7.90;82.40;;;;;;5063875;28;20251;-80
2021/11/17 15:47:51;;;;;;;4.43;3.33;;;7.80;82.50;;;;;;5062496;28;20249;-79
2021/11/17 15:50:30;;;;;;;7.10;3.90;;;7.80;82.50;;;;;;5064547;28;20195;-80
2021/11/17 15:52:57;;;;;;;4.83;3.17;;;7.80;82.60;;;;;;5064607;28;20249;-79
2021/11/17 15:55:23;;;;;;;4.53;3.33;;;7.70;82.90;;;;;;5064633;28;20175;-80
2021/11/17 15:57:49;;;;;;;3.80;3.33;;;7.70;82.90;;;;;;5065319;28;20215;-79
2021/11/17 16:00:18;;;;;;;6.00;3.57;;;7.70;83.10;;;;;;5068588;28;20179;-80
2021/11/17 16:02:44;;;;;;;2.77;2.57;;;7.70;83.10;;;;;;5055915;28;20180;-79
2021/11/17 16:05:10;;;;;;;5.00;3.90;;;7.60;83.20;;;;;;5054114;28;20245;-79
2021/11/17 16:07:36;;;;;;;4.53;3.90;;;7.60;83.40;;;;;;5048922;28;20188;-77